Adventure of The Seas — C6SA3 — position and weather

sailwx.info

Track history (hours):
 
Tides and Currents Weather Stations Pressure Air Temp Water Temp Dewpoint Dewpoint Depression Visibility Wind Speed Wind Dir Waves Ship Positions

Adventure of The Seas

Operator: Royal Caribbean Cruises Ltd

Last reported at 2019-Jul-12 20:42 UTC. Time now 2019-Jul-19 19:03 UTC.
Position N 40°26' W 073°48'.

Type: Passenger vessel. MMSI: 311263000.

Date/timePositionNaut miles runAvg speedWind from/ knotsBaromVisibWave heightAir tempDewpointWater temp
2019-Jul-12 20:42N 40°26' W 073°48'211.0
2019-Jul-12 20:30N 40°27' W 073°50'816.7
2019-Jul-12 20:00N 40°31' W 074°00'714.3
2019-Jul-12 19:30N 40°38' W 074°03'2 3.3
2019-Jul-12 18:56N 40°40' W 074°04'0 0.0
2019-Jul-12 18:29N 40°40' W 074°04'0 0.0
2019-Jul-12 17:59N 40°40' W 074°04'0 0.0
2019-Jul-12 17:29N 40°40' W 074°04'0 0.0
2019-Jul-12 16:59N 40°40' W 074°04'0 0.0
2019-Jul-12 16:29N 40°40' W 074°04'0 0.0
2019-Jul-12 15:59N 40°40' W 074°04'0 0.0
2019-Jul-12 15:29N 40°40' W 074°04'0 0.0
2019-Jul-12 14:59N 40°40' W 074°04'0 0.0
2019-Jul-12 14:26N 40°40' W 074°04'0 0.0
2019-Jul-12 13:59N 40°40' W 074°04'0 0.0
2019-Jul-12 13:29N 40°40' W 074°04'0 0.0
2019-Jul-12 12:44N 40°40' W 074°04'0 0.0
2019-Jul-12 12:29N 40°40' W 074°04'0 0.0
2019-Jul-12 11:59N 40°40' W 074°04'0 0.0
2019-Jul-12 11:29N 40°40' W 074°04'0 0.0
2019-Jul-12 10:59N 40°40' W 074°04'0 0.0
2019-Jul-12 10:29N 40°40' W 074°04'0 0.0
2019-Jul-12 10:00N 40°40' W 074°04'0 0.8
2019-Jul-12 09:30N 40°40' W 074°04'3 5.2
2019-Jul-12 09:00N 40°37' W 074°03'714.8
2019-Jul-12 08:30N 40°31' W 073°58'814.9
2019-Jul-12 07:59N 40°28' W 073°49'611.6
2019-Jul-12 07:29N 40°28' W 073°41'713.4
2019-Jul-12 06:57N 40°28' W 073°32'7514.7
2019-Jul-12 01:50N 40°31' W 071°53'2115.3
2019-Jul-12 00:27N 40°32' W 071°25'42617.8
2019-Jul-11 00:31N 44°38' W 063°34'15 6.8
2019-Jul-10 22:19N 44°24' W 063°28'618.7
2019-Jul-10 22:00N 44°29' W 063°30'612.8
2019-Jul-10 21:31N 44°36' W 063°32'3 5.4
2019-Jul-10 20:58N 44°38' W 063°34'0 0.0
2019-Jul-10 20:28N 44°38' W 063°34'0 0.0
2019-Jul-10 19:58N 44°38' W 063°34'0 0.0
2019-Jul-10 19:28N 44°38' W 063°34'0 0.0
2019-Jul-10 18:58N 44°38' W 063°34'0 0.0
2019-Jul-10 18:28N 44°38' W 063°34'0 0.0
2019-Jul-10 17:58N 44°38' W 063°34'0 0.0
2019-Jul-10 17:28N 44°38' W 063°34'0 0.0
2019-Jul-10 16:58N 44°38' W 063°34'0 0.0
2019-Jul-10 16:28N 44°38' W 063°34'0 0.0
2019-Jul-10 15:58N 44°38' W 063°34'0 0.0
2019-Jul-10 15:28N 44°38' W 063°34'0 0.0
2019-Jul-10 14:58N 44°38' W 063°34'0 0.0
2019-Jul-10 14:28N 44°38' W 063°34'0 0.0
2019-Jul-10 13:58N 44°38' W 063°34'0 0.0
2019-Jul-10 13:28N 44°38' W 063°34'0 0.0
2019-Jul-10 12:58N 44°38' W 063°34'0 0.0
2019-Jul-10 12:28N 44°38' W 063°34'0 0.0
2019-Jul-10 11:58N 44°38' W 063°34'0 0.8
2019-Jul-10 11:31N 44°38' W 063°33'4 8.0
2019-Jul-10 11:00N 44°34' W 063°32'188 5.4
2019-Jul-08 23:53N 44°14' W 067°53'613.2
2019-Jul-08 23:27N 44°17' W 068°00'6 0.4
2019-Jul-08 09:42N 44°19' W 068°08'212.0
2019-Jul-08 09:30N 44°17' W 068°08'510.5
2019-Jul-08 09:00N 44°12' W 068°08'812.3
2019-Jul-08 08:22N 44°04' W 068°09'512.2
2019-Jul-08 07:59N 43°60' W 068°11'613.4
2019-Jul-08 07:30N 43°54' W 068°16'313 9.3
2019-Jul-06 21:46N 40°22' W 073°26'1813.8
2019-Jul-06 20:27N 40°28' W 073°49'612.7
2019-Jul-06 20:00N 40°30' W 073°56'816.9
2019-Jul-06 19:30N 40°36' W 074°03'4 7.5
2019-Jul-06 18:59N 40°40' W 074°04'0 0.0
2019-Jul-06 18:26N 40°40' W 074°04'0 0.0
2019-Jul-06 17:59N 40°40' W 074°04'0 0.0
2019-Jul-06 17:29N 40°40' W 074°04'0 0.0
2019-Jul-06 16:56N 40°40' W 074°04'0 0.0
2019-Jul-06 16:29N 40°40' W 074°04'0 0.0
2019-Jul-06 15:50N 40°40' W 074°04'0 0.0
2019-Jul-06 15:29N 40°40' W 074°04'0 0.0
2019-Jul-06 14:59N 40°40' W 074°04'0 0.0
2019-Jul-06 14:29N 40°40' W 074°04'0 0.0
2019-Jul-06 13:56N 40°40' W 074°04'0 0.0
2019-Jul-06 13:29N 40°40' W 074°04'0 0.0
2019-Jul-06 12:59N 40°40' W 074°04'0 0.0
2019-Jul-06 12:29N 40°40' W 074°04'0 0.0
2019-Jul-06 11:59N 40°40' W 074°04'0 0.0
2019-Jul-06 11:29N 40°40' W 074°04'0 0.0
2019-Jul-06 10:59N 40°40' W 074°04'0 0.0
2019-Jul-06 10:29N 40°40' W 074°04'0 0.0
2019-Jul-06 10:00N 40°40' W 074°04'1 1.6
2019-Jul-06 09:30N 40°40' W 074°03'4 7.1
2019-Jul-06 09:00N 40°36' W 074°03'714.0
2019-Jul-06 08:29N 40°30' W 073°57'912.5
2019-Jul-06 07:45N 40°25' W 073°47'713.1
2019-Jul-06 07:12N 40°18' W 073°46'314.3
2019-Jul-06 06:59N 40°15' W 073°45'815.3
2019-Jul-06 06:30N 40°07' W 073°44'1013.7
2019-Jul-06 05:45N 39°57' W 073°42'312.7
2019-Jul-06 05:30N 39°54' W 073°42'1014.0
2019-Jul-06 04:48N 39°44' W 073°39'514.0
2019-Jul-06 04:29N 39°40' W 073°40'714.4
2019-Jul-06 04:00N 39°33' W 073°41'714.3
2019-Jul-06 03:30N 39°26' W 073°43'711.7
2019-Jul-06 02:54N 39°19' W 073°44'513.8
2019-Jul-06 02:30N 39°14' W 073°46'1413.9
2019-Jul-06 01:30N 39°00' W 073°51'2914.2
2019-Jul-05 23:27N 38°32' W 073°58'19114.2
2019-Jul-05 10:00N 35°24' W 074°42'39717.3 190 / 121020.310.8 26.125.625.0
2019-Jul-04 11:00N 28°54' W 076°12'   120 / 51016.710.8 24.923.724.5
Track history (hours):
 
Tides and Currents Weather Stations Pressure Air Temp Water Temp Dewpoint Dewpoint Depression Visibility Wind Speed Wind Dir Waves Ship Positions

Adventure of The Seas

Operator: Royal Caribbean Cruises Ltd

Last reported at 2019-Jul-12 20:42 UTC. Time now 2019-Jul-19 19:03 UTC.
Position N 40°26' W 073°48'.

Type: Passenger vessel. MMSI: 311263000.

Date/timePositionNaut miles runAvg speedWind from/ knotsBaromVisibWave heightAir tempDewpointWater temp
2019-Jul-12 20:42N 40°26' W 073°48'211.0
2019-Jul-12 20:30N 40°27' W 073°50'816.7
2019-Jul-12 20:00N 40°31' W 074°00'714.3
2019-Jul-12 19:30N 40°38' W 074°03'2 3.3
2019-Jul-12 18:56N 40°40' W 074°04'0 0.0
2019-Jul-12 18:29N 40°40' W 074°04'0 0.0
2019-Jul-12 17:59N 40°40' W 074°04'0 0.0
2019-Jul-12 17:29N 40°40' W 074°04'0 0.0
2019-Jul-12 16:59N 40°40' W 074°04'0 0.0
2019-Jul-12 16:29N 40°40' W 074°04'0 0.0
2019-Jul-12 15:59N 40°40' W 074°04'0 0.0
2019-Jul-12 15:29N 40°40' W 074°04'0 0.0
2019-Jul-12 14:59N 40°40' W 074°04'0 0.0
2019-Jul-12 14:26N 40°40' W 074°04'0 0.0
2019-Jul-12 13:59N 40°40' W 074°04'0 0.0
2019-Jul-12 13:29N 40°40' W 074°04'0 0.0
2019-Jul-12 12:44N 40°40' W 074°04'0 0.0
2019-Jul-12 12:29N 40°40' W 074°04'0 0.0
2019-Jul-12 11:59N 40°40' W 074°04'0 0.0
2019-Jul-12 11:29N 40°40' W 074°04'0 0.0
2019-Jul-12 10:59N 40°40' W 074°04'0 0.0
2019-Jul-12 10:29N 40°40' W 074°04'0 0.0
2019-Jul-12 10:00N 40°40' W 074°04'0 0.8
2019-Jul-12 09:30N 40°40' W 074°04'3 5.2
2019-Jul-12 09:00N 40°37' W 074°03'714.8
2019-Jul-12 08:30N 40°31' W 073°58'814.9
2019-Jul-12 07:59N 40°28' W 073°49'611.6
2019-Jul-12 07:29N 40°28' W 073°41'713.4
2019-Jul-12 06:57N 40°28' W 073°32'7514.7
2019-Jul-12 01:50N 40°31' W 071°53'2115.3
2019-Jul-12 00:27N 40°32' W 071°25'42617.8
2019-Jul-11 00:31N 44°38' W 063°34'15 6.8
2019-Jul-10 22:19N 44°24' W 063°28'618.7
2019-Jul-10 22:00N 44°29' W 063°30'612.8
2019-Jul-10 21:31N 44°36' W 063°32'3 5.4
2019-Jul-10 20:58N 44°38' W 063°34'0 0.0
2019-Jul-10 20:28N 44°38' W 063°34'0 0.0
2019-Jul-10 19:58N 44°38' W 063°34'0 0.0
2019-Jul-10 19:28N 44°38' W 063°34'0 0.0
2019-Jul-10 18:58N 44°38' W 063°34'0 0.0
2019-Jul-10 18:28N 44°38' W 063°34'0 0.0
2019-Jul-10 17:58N 44°38' W 063°34'0 0.0
2019-Jul-10 17:28N 44°38' W 063°34'0 0.0
2019-Jul-10 16:58N 44°38' W 063°34'0 0.0
2019-Jul-10 16:28N 44°38' W 063°34'0 0.0
2019-Jul-10 15:58N 44°38' W 063°34'0 0.0
2019-Jul-10 15:28N 44°38' W 063°34'0 0.0
2019-Jul-10 14:58N 44°38' W 063°34'0 0.0
2019-Jul-10 14:28N 44°38' W 063°34'0 0.0
2019-Jul-10 13:58N 44°38' W 063°34'0 0.0
2019-Jul-10 13:28N 44°38' W 063°34'0 0.0
2019-Jul-10 12:58N 44°38' W 063°34'0 0.0
2019-Jul-10 12:28N 44°38' W 063°34'0 0.0
2019-Jul-10 11:58N 44°38' W 063°34'0 0.8
2019-Jul-10 11:31N 44°38' W 063°33'4 8.0
2019-Jul-10 11:00N 44°34' W 063°32'188 5.4
2019-Jul-08 23:53N 44°14' W 067°53'613.2
2019-Jul-08 23:27N 44°17' W 068°00'6 0.4
2019-Jul-08 09:42N 44°19' W 068°08'212.0
2019-Jul-08 09:30N 44°17' W 068°08'510.5
2019-Jul-08 09:00N 44°12' W 068°08'812.3
2019-Jul-08 08:22N 44°04' W 068°09'512.2
2019-Jul-08 07:59N 43°60' W 068°11'613.4
2019-Jul-08 07:30N 43°54' W 068°16'313 9.3
2019-Jul-06 21:46N 40°22' W 073°26'1813.8
2019-Jul-06 20:27N 40°28' W 073°49'612.7
2019-Jul-06 20:00N 40°30' W 073°56'816.9
2019-Jul-06 19:30N 40°36' W 074°03'4 7.5
2019-Jul-06 18:59N 40°40' W 074°04'0 0.0
2019-Jul-06 18:26N 40°40' W 074°04'0 0.0
2019-Jul-06 17:59N 40°40' W 074°04'0 0.0
2019-Jul-06 17:29N 40°40' W 074°04'0 0.0
2019-Jul-06 16:56N 40°40' W 074°04'0 0.0
2019-Jul-06 16:29N 40°40' W 074°04'0 0.0
2019-Jul-06 15:50N 40°40' W 074°04'0 0.0
2019-Jul-06 15:29N 40°40' W 074°04'0 0.0
2019-Jul-06 14:59N 40°40' W 074°04'0 0.0
2019-Jul-06 14:29N 40°40' W 074°04'0 0.0
2019-Jul-06 13:56N 40°40' W 074°04'0 0.0
2019-Jul-06 13:29N 40°40' W 074°04'0 0.0
2019-Jul-06 12:59N 40°40' W 074°04'0 0.0
2019-Jul-06 12:29N 40°40' W 074°04'0 0.0
2019-Jul-06 11:59N 40°40' W 074°04'0 0.0
2019-Jul-06 11:29N 40°40' W 074°04'0 0.0
2019-Jul-06 10:59N 40°40' W 074°04'0 0.0
2019-Jul-06 10:29N 40°40' W 074°04'0 0.0
2019-Jul-06 10:00N 40°40' W 074°04'1 1.6
2019-Jul-06 09:30N 40°40' W 074°03'4 7.1
2019-Jul-06 09:00N 40°36' W 074°03'714.0
2019-Jul-06 08:29N 40°30' W 073°57'912.5
2019-Jul-06 07:45N 40°25' W 073°47'713.1
2019-Jul-06 07:12N 40°18' W 073°46'314.3
2019-Jul-06 06:59N 40°15' W 073°45'815.3
2019-Jul-06 06:30N 40°07' W 073°44'1013.7
2019-Jul-06 05:45N 39°57' W 073°42'312.7
2019-Jul-06 05:30N 39°54' W 073°42'1014.0
2019-Jul-06 04:48N 39°44' W 073°39'514.0
2019-Jul-06 04:29N 39°40' W 073°40'714.4
2019-Jul-06 04:00N 39°33' W 073°41'714.3
2019-Jul-06 03:30N 39°26' W 073°43'711.7
2019-Jul-06 02:54N 39°19' W 073°44'513.8
2019-Jul-06 02:30N 39°14' W 073°46'1413.9
2019-Jul-06 01:30N 39°00' W 073°51'2914.2
2019-Jul-05 23:27N 38°32' W 073°58'19114.2
2019-Jul-05 10:00N 35°24' W 074°42'39717.3 190 / 121020.310.8 26.125.625.0
2019-Jul-04 11:00N 28°54' W 076°12'   120 / 51016.710.8 24.923.724.5

Dump ship's entire track history